ストックホルム/アーランダ の空港の天気 - METARとTAF

ストックホルム・アーランダ空港 ( ESSA / ARN ) - スウェーデン ストックホルム
飛行場実況気象(Metar)
観測時間08/22 18:20 CEST (08/22 16:20 UTC)
風向・風速南 5m/s
視程10km以上
天気現象
なし
気温18℃
湿度56%
気圧1022hPa
METARESSA 221620Z 18010KT CAVOK 18/09 Q1022 NOSIG
過去の天気等 Google飛行場航空写真 Wunderground天気予報

過去48時間のMETAR

飛行場予報(TAF)
発表時間: 8/22 17:49 CEST (8/22 15:49 UTC)
予報対象時間: 22日17時 CEST ~ 23日14時 CEST
風向・風速南西 6m/s
視程10km以上
全天の4割程度の雲 雲底高度 1070m
22日18時 CEST ~ 22日20時 CEST に一時的に
天気現象しゅう雨
全天の8割程度の積乱雲 雲底高度 1220m
22日20時 CEST ~ 23日4時 CEST に一時的に
天気現象
全天の8割程度の積乱雲 雲底高度 1220m
22日21時 CEST ~ 22日23時 CEST に徐々に
風向・風速南 3m/s
23日10時 CEST ~ 23日12時 CEST に徐々に
風向・風速南西 5m/s
23日13時 CEST から 確率 40% で
天気現象
TAF AMD ESSA 221549Z 2215/2312 23012KT 9999 SCT035
TEMPO 2216/2218 SHRA BKN040CB
TEMPO 2218/2302 RA BKN040CB
BECMG 2219/2221 17005KT
BECMG 2308/2310 23010KT
PROB40 2311/2312 RA